Terminal Aerodrome Forecast
Issued by NWS

Home | Current Version | Previous Version | Text Only | Print | Product List | Glossary On
Versions: 1 2 3 4 5 6 7 8 9 10 11 12 13 14 15 16 17
000
FTUS43 KMPX 061121 AAA
TAFRWF
TAF AMD
KRWF 061121Z 0611/0712 13013KT 1/2SM FG VCSH VV002
      TEMPO 0611/0614 1 1/2SM BR VV003
     FM061500 14014G21KT 3SM BR SCT009 OVC015
     FM061700 15017G28KT P6SM SCT025 BKN040
     FM062000 15017G25KT 5SM -SHRA SCT020 BKN035
      TEMPO 0620/0624 2SM TSRA BKN025 OVC040CB
     FM070100 15012G19KT P6SM BKN040=

USA.gov is the U.S. government's official web portal to all federal, state and local government web resources and services.